PWSweather.com
Personal Weather Stations
Station Observations
PICKERING
North Yorkshire, PickeringGB

North YorkshirePickeringGB

Lat: 54.2494, Lon: -0.7725

Elevation: 192

Station Type: Oregon Scientific WMR100

http://www.yorkshirewalker.co.uk/weather/

High Low Average
Temperature 68.2°F20.1°C 31.3°F-0.4°C 50.3°F10.2°C
Dew Point 46.4°F8.0°C 21.2°F-6.0°C 34.3°F1.3°C
Winds 9.6 mph 15.4 kmh Calm Calm 4.0 mph SSW6.4 kmh SSW
Wind Gusts 17.0 mph27.4 kmh -- 8.0 mph12.9 kmh
Humidity 73% 39% 55%
Pressure 29.74 in1007.1 mb 29.59 in1002.0 mb -
Precipitation 0.00 in0.0 mm - -
Hour Temp Dew Point Humidity Winds Wind Gusts Pressure Precip Precip Rate Daily Precip Total
12:00 AM 38.5°F3.6°C 28.4°F-2.0°C 66% 1.4 mph W2.3 kmh W 2.7 mph4.3 kmh 29.74 in1007.1 mb 0.00 in0.0 mm 0.00 in0.0 mm 0.00 in0.0 mm
12:05 AM 38.5°F3.6°C 28.4°F-2.0°C 66% 1.9 mph WSW3.1 kmh WSW 2.9 mph4.7 kmh 29.74 in1007.1 mb 0.00 in0.0 mm 0.00 in0.0 mm 0.00 in0.0 mm
12:10 AM 38.3°F3.5°C 28.4°F-2.0°C 67% 1.9 mph WSW3.1 kmh WSW 2.9 mph4.7 kmh 29.74 in1007.1 mb 0.00 in0.0 mm 0.00 in0.0 mm 0.00 in0.0 mm
12:15 AM 38.1°F3.4°C 28.4°F-2.0°C 67% 2.0 mph W3.2 kmh W 3.4 mph5.5 kmh 29.74 in1007.1 mb 0.00 in0.0 mm 0.00 in0.0 mm 0.00 in0.0 mm
12:20 AM 37.9°F3.3°C 28.4°F-2.0°C 67% 2.4 mph W3.9 kmh W 6.0 mph9.7 kmh 29.74 in1007.1 mb 0.00 in0.0 mm 0.00 in0.0 mm 0.00 in0.0 mm
12:25 AM 37.9°F3.3°C 28.4°F-2.0°C 67% 2.2 mph NW3.5 kmh NW 6.0 mph9.7 kmh 29.74 in1007.1 mb 0.00 in0.0 mm 0.00 in0.0 mm 0.00 in0.0 mm
12:30 AM 37.8°F3.2°C 28.4°F-2.0°C 67% 2.2 mph NW3.5 kmh NW 6.0 mph9.7 kmh 29.74 in1007.1 mb 0.00 in0.0 mm 0.00 in0.0 mm 0.00 in0.0 mm
12:35 AM 37.8°F3.2°C 28.4°F-2.0°C 67% 1.8 mph NW2.9 kmh NW 3.1 mph5.0 kmh 29.74 in1007.1 mb 0.00 in0.0 mm 0.00 in0.0 mm 0.00 in0.0 mm
12:40 AM 37.6°F3.1°C 28.4°F-2.0°C 67% 1.6 mph NW2.6 kmh NW 3.1 mph5.0 kmh 29.74 in1007.1 mb 0.00 in0.0 mm 0.00 in0.0 mm 0.00 in0.0 mm
12:45 AM 37.4°F3.0°C 28.4°F-2.0°C 68% 1.5 mph NW2.4 kmh NW 2.7 mph4.3 kmh 29.71 in1006.1 mb 0.00 in0.0 mm 0.00 in0.0 mm 0.00 in0.0 mm
12:50 AM 37.4°F3.0°C 28.4°F-2.0°C 68% 2.3 mph NW3.7 kmh NW 3.8 mph6.1 kmh 29.71 in1006.1 mb 0.00 in0.0 mm 0.00 in0.0 mm 0.00 in0.0 mm
12:55 AM 37.4°F3.0°C 28.4°F-2.0°C 68% 3.2 mph NW5.1 kmh NW 5.6 mph9.0 kmh 29.71 in1006.1 mb 0.00 in0.0 mm 0.00 in0.0 mm 0.00 in0.0 mm
01:00 AM 37.2°F2.9°C 28.4°F-2.0°C 68% 2.8 mph NNW4.5 kmh NNW 5.6 mph9.0 kmh 29.71 in1006.1 mb 0.00 in0.0 mm 0.00 in0.0 mm 0.00 in0.0 mm
01:05 AM 37.2°F2.9°C 28.4°F-2.0°C 68% 2.1 mph NW3.4 kmh NW 5.4 mph8.7 kmh 29.71 in1006.1 mb 0.00 in0.0 mm 0.00 in0.0 mm 0.00 in0.0 mm
01:10 AM 37.2°F2.9°C 28.4°F-2.0°C 68% 2.5 mph WNW4.0 kmh WNW 5.4 mph8.7 kmh 29.71 in1006.1 mb 0.00 in0.0 mm 0.00 in0.0 mm 0.00 in0.0 mm
01:15 AM 37.0°F2.8°C 28.4°F-2.0°C 69% 2.1 mph NW3.4 kmh NW 5.4 mph8.7 kmh 29.71 in1006.1 mb 0.00 in0.0 mm 0.00 in0.0 mm 0.00 in0.0 mm
01:20 AM 36.7°F2.6°C 26.6°F-3.0°C 69% 1.5 mph WNW2.4 kmh WNW 2.9 mph4.7 kmh 29.71 in1006.1 mb 0.00 in0.0 mm 0.00 in0.0 mm 0.00 in0.0 mm
01:25 AM 36.7°F2.6°C 26.6°F-3.0°C 69% 1.4 mph W2.3 kmh W 2.9 mph4.7 kmh 29.71 in1006.1 mb 0.00 in0.0 mm 0.00 in0.0 mm 0.00 in0.0 mm
01:30 AM 36.7°F2.6°C 26.6°F-3.0°C 69% 1.9 mph WNW3.1 kmh WNW 3.6 mph5.8 kmh 29.71 in1006.1 mb 0.00 in0.0 mm 0.00 in0.0 mm 0.00 in0.0 mm
01:35 AM 36.5°F2.5°C 26.6°F-3.0°C 69% 2.1 mph WNW3.4 kmh WNW 3.6 mph5.8 kmh 29.71 in1006.1 mb 0.00 in0.0 mm 0.00 in0.0 mm 0.00 in0.0 mm
01:40 AM 36.5°F2.5°C 26.6°F-3.0°C 69% 2.5 mph W4.0 kmh W 4.3 mph6.9 kmh 29.71 in1006.1 mb 0.00 in0.0 mm 0.00 in0.0 mm 0.00 in0.0 mm
01:45 AM 36.3°F2.4°C 26.6°F-3.0°C 69% 2.5 mph W4.0 kmh W 4.3 mph6.9 kmh 29.71 in1006.1 mb 0.00 in0.0 mm 0.00 in0.0 mm 0.00 in0.0 mm
01:50 AM 36.1°F2.3°C 26.6°F-3.0°C 69% 1.3 mph W2.1 kmh W 3.1 mph5.0 kmh 29.71 in1006.1 mb 0.00 in0.0 mm 0.00 in0.0 mm 0.00 in0.0 mm
01:55 AM 36.1°F2.3°C 26.6°F-3.0°C 69% 1.3 mph W2.1 kmh W 3.1 mph5.0 kmh 29.71 in1006.1 mb 0.00 in0.0 mm 0.00 in0.0 mm 0.00 in0.0 mm
02:00 AM 36.1°F2.3°C 26.6°F-3.0°C 69% 1.4 mph WNW2.3 kmh WNW 3.4 mph5.5 kmh 29.71 in1006.1 mb 0.00 in0.0 mm 0.00 in0.0 mm 0.00 in0.0 mm
02:05 AM 36.0°F2.2°C 26.6°F-3.0°C 69% 1.3 mph W2.1 kmh W 3.4 mph5.5 kmh 29.71 in1006.1 mb 0.00 in0.0 mm 0.00 in0.0 mm 0.00 in0.0 mm
02:10 AM 36.0°F2.2°C 26.6°F-3.0°C 69% 0.9 mph WSW1.4 kmh WSW 2.7 mph4.3 kmh 29.71 in1006.1 mb 0.00 in0.0 mm 0.00 in0.0 mm 0.00 in0.0 mm
02:15 AM 35.8°F2.1°C 26.6°F-3.0°C 69% 0.8 mph WSW1.3 kmh WSW 2.0 mph3.2 kmh 29.71 in1006.1 mb 0.00 in0.0 mm 0.00 in0.0 mm 0.00 in0.0 mm
02:20 AM 35.6°F2.0°C 26.6°F-3.0°C 69% 0.9 mph WSW1.4 kmh WSW 3.1 mph5.0 kmh 29.71 in1006.1 mb 0.00 in0.0 mm 0.00 in0.0 mm 0.00 in0.0 mm
02:25 AM 35.4°F1.9°C 26.6°F-3.0°C 69% 1.3 mph WSW2.1 kmh WSW 3.6 mph5.8 kmh 29.71 in1006.1 mb 0.00 in0.0 mm 0.00 in0.0 mm 0.00 in0.0 mm
02:30 AM 35.4°F1.9°C 26.6°F-3.0°C 70% 2.2 mph WSW3.5 kmh WSW 3.6 mph5.8 kmh 29.71 in1006.1 mb 0.00 in0.0 mm 0.00 in0.0 mm 0.00 in0.0 mm
02:35 AM 35.2°F1.8°C 26.6°F-3.0°C 70% 2.5 mph WSW4.0 kmh WSW 4.0 mph6.4 kmh 29.71 in1006.1 mb 0.00 in0.0 mm 0.00 in0.0 mm 0.00 in0.0 mm
02:40 AM 35.2°F1.8°C 26.6°F-3.0°C 70% 2.3 mph WSW3.7 kmh WSW 4.0 mph6.4 kmh 29.71 in1006.1 mb 0.00 in0.0 mm 0.00 in0.0 mm 0.00 in0.0 mm
02:45 AM 34.9°F1.6°C 26.6°F-3.0°C 70% 1.5 mph WSW2.4 kmh WSW 3.6 mph5.8 kmh 29.71 in1006.1 mb 0.00 in0.0 mm 0.00 in0.0 mm 0.00 in0.0 mm
02:50 AM 34.5°F1.4°C 26.6°F-3.0°C 70% 0.7 mph WSW1.1 kmh WSW 2.5 mph4.0 kmh 29.71 in1006.1 mb 0.00 in0.0 mm 0.00 in0.0 mm 0.00 in0.0 mm
02:55 AM 34.5°F1.4°C 26.6°F-3.0°C 70% 0.5 mph WSW0.8 kmh WSW 2.5 mph4.0 kmh 29.71 in1006.1 mb 0.00 in0.0 mm 0.00 in0.0 mm 0.00 in0.0 mm
03:00 AM 34.3°F1.3°C 24.8°F-4.0°C 69% 0.8 mph SW1.3 kmh SW 1.6 mph2.6 kmh 29.71 in1006.1 mb 0.00 in0.0 mm 0.00 in0.0 mm 0.00 in0.0 mm
03:05 AM 34.2°F1.2°C 24.8°F-4.0°C 69% 0.4 mph SW0.6 kmh SW 1.6 mph2.6 kmh 29.71 in1006.1 mb 0.00 in0.0 mm 0.00 in0.0 mm 0.00 in0.0 mm
03:10 AM 33.8°F1.0°C 24.8°F-4.0°C 70% 0.1 mph SW0.2 kmh SW 0.9 mph1.4 kmh 29.71 in1006.1 mb 0.00 in0.0 mm 0.00 in0.0 mm 0.00 in0.0 mm
03:15 AM 33.8°F1.0°C 24.8°F-4.0°C 70% 0.3 mph WSW0.5 kmh WSW 0.9 mph1.4 kmh 29.71 in1006.1 mb 0.00 in0.0 mm 0.00 in0.0 mm 0.00 in0.0 mm
03:20 AM 33.6°F0.9°C 24.8°F-4.0°C 69% 0.2 mph W0.3 kmh W 0.9 mph1.4 kmh 29.71 in1006.1 mb 0.00 in0.0 mm 0.00 in0.0 mm 0.00 in0.0 mm
03:25 AM 33.4°F0.8°C 24.8°F-4.0°C 69% 0.1 mph WNW0.2 kmh WNW 0.9 mph1.4 kmh 29.71 in1006.1 mb 0.00 in0.0 mm 0.00 in0.0 mm 0.00 in0.0 mm
03:30 AM 33.8°F1.0°C 24.8°F-4.0°C 70% Calm Calm -- 29.71 in1006.1 mb 0.00 in0.0 mm 0.00 in0.0 mm 0.00 in0.0 mm
03:35 AM 33.8°F1.0°C 24.8°F-4.0°C 70% 0.3 mph S0.5 kmh S 1.6 mph2.6 kmh 29.71 in1006.1 mb 0.00 in0.0 mm 0.00 in0.0 mm 0.00 in0.0 mm
03:40 AM 33.8°F1.0°C 24.8°F-4.0°C 70% 1.5 mph S2.4 kmh S 3.1 mph5.0 kmh 29.71 in1006.1 mb 0.00 in0.0 mm 0.00 in0.0 mm 0.00 in0.0 mm
03:45 AM 33.4°F0.8°C 24.8°F-4.0°C 69% 1.3 mph SSW2.1 kmh SSW 3.1 mph5.0 kmh 29.71 in1006.1 mb 0.00 in0.0 mm 0.00 in0.0 mm 0.00 in0.0 mm
03:50 AM 33.3°F0.7°C 24.8°F-4.0°C 69% 0.3 mph W0.5 kmh W 1.1 mph1.8 kmh 29.71 in1006.1 mb 0.00 in0.0 mm 0.00 in0.0 mm 0.00 in0.0 mm
03:55 AM 33.1°F0.6°C 23.0°F-5.0°C 69% 0.2 mph SW0.3 kmh SW 1.1 mph1.8 kmh 29.71 in1006.1 mb 0.00 in0.0 mm 0.00 in0.0 mm 0.00 in0.0 mm
04:00 AM 32.7°F0.4°C 23.0°F-5.0°C 69% 0.2 mph WSW0.3 kmh WSW 0.9 mph1.4 kmh 29.71 in1006.1 mb 0.00 in0.0 mm 0.00 in0.0 mm 0.00 in0.0 mm
04:05 AM 32.7°F0.4°C 23.0°F-5.0°C 69% 0.1 mph WSW0.2 kmh WSW 0.9 mph1.4 kmh 29.71 in1006.1 mb 0.00 in0.0 mm 0.00 in0.0 mm 0.00 in0.0 mm
04:10 AM 32.9°F0.5°C 23.0°F-5.0°C 69% 0.1 mph S0.2 kmh S 0.9 mph1.4 kmh 29.71 in1006.1 mb 0.00 in0.0 mm 0.00 in0.0 mm 0.00 in0.0 mm
04:15 AM 32.7°F0.4°C 23.0°F-5.0°C 69% 0.1 mph S0.2 kmh S 0.9 mph1.4 kmh 29.71 in1006.1 mb 0.00 in0.0 mm 0.00 in0.0 mm 0.00 in0.0 mm
04:20 AM 32.7°F0.4°C 23.0°F-5.0°C 69% Calm Calm -- 29.71 in1006.1 mb 0.00 in0.0 mm 0.00 in0.0 mm 0.00 in0.0 mm
04:25 AM 32.4°F0.2°C 21.2°F-6.0°C 69% Calm Calm -- 29.71 in1006.1 mb 0.00 in0.0 mm 0.00 in0.0 mm 0.00 in0.0 mm
04:30 AM 32.4°F0.2°C 21.2°F-6.0°C 69% Calm Calm -- 29.71 in1006.1 mb 0.00 in0.0 mm 0.00 in0.0 mm 0.00 in0.0 mm
04:35 AM 32.4°F0.2°C 21.2°F-6.0°C 69% Calm Calm -- 29.71 in1006.1 mb 0.00 in0.0 mm 0.00 in0.0 mm 0.00 in0.0 mm
04:40 AM 32.0°F0.0°C 21.2°F-6.0°C 69% Calm Calm -- 29.71 in1006.1 mb 0.00 in0.0 mm 0.00 in0.0 mm 0.00 in0.0 mm
04:45 AM 31.8°F-0.1°C 21.2°F-6.0°C 69% Calm Calm -- 29.71 in1006.1 mb 0.00 in0.0 mm 0.00 in0.0 mm 0.00 in0.0 mm
04:50 AM 31.5°F-0.3°C 21.2°F-6.0°C 69% Calm Calm -- 29.71 in1006.1 mb 0.00 in0.0 mm 0.00 in0.0 mm 0.00 in0.0 mm
04:55 AM 31.5°F-0.3°C 21.2°F-6.0°C 69% Calm Calm -- 29.71 in1006.1 mb 0.00 in0.0 mm 0.00 in0.0 mm 0.00 in0.0 mm
05:00 AM 31.5°F-0.3°C 21.2°F-6.0°C 69% 0.1 mph E0.2 kmh E 0.9 mph1.4 kmh 29.71 in1006.1 mb 0.00 in0.0 mm 0.00 in0.0 mm 0.00 in0.0 mm
05:05 AM 31.5°F-0.3°C 21.2°F-6.0°C 70% 0.1 mph E0.2 kmh E 0.9 mph1.4 kmh 29.71 in1006.1 mb 0.00 in0.0 mm 0.00 in0.0 mm 0.00 in0.0 mm
05:10 AM 31.5°F-0.3°C 21.2°F-6.0°C 70% Calm Calm -- 29.71 in1006.1 mb 0.00 in0.0 mm 0.00 in0.0 mm 0.00 in0.0 mm
05:15 AM 31.5°F-0.3°C 21.2°F-6.0°C 70% 0.2 mph NE0.3 kmh NE 1.1 mph1.8 kmh 29.71 in1006.1 mb 0.00 in0.0 mm 0.00 in0.0 mm 0.00 in0.0 mm
05:20 AM 31.6°F-0.2°C 21.2°F-6.0°C 70% 0.2 mph NE0.3 kmh NE 1.1 mph1.8 kmh 29.71 in1006.1 mb 0.00 in0.0 mm 0.00 in0.0 mm 0.00 in0.0 mm
05:25 AM 31.3°F-0.4°C 21.2°F-6.0°C 70% 0.2 mph NE0.3 kmh NE 2.2 mph3.5 kmh 29.71 in1006.1 mb 0.00 in0.0 mm 0.00 in0.0 mm 0.00 in0.0 mm
05:30 AM 31.6°F-0.2°C 21.2°F-6.0°C 70% 0.5 mph NE0.8 kmh NE 2.2 mph3.5 kmh 29.71 in1006.1 mb 0.00 in0.0 mm 0.00 in0.0 mm 0.00 in0.0 mm
05:35 AM 31.8°F-0.1°C 21.2°F-6.0°C 71% 0.4 mph NE0.6 kmh NE 2.2 mph3.5 kmh 29.71 in1006.1 mb 0.00 in0.0 mm 0.00 in0.0 mm 0.00 in0.0 mm
05:40 AM 31.8°F-0.1°C 21.2°F-6.0°C 71% 0.3 mph E0.5 kmh E 2.2 mph3.5 kmh 29.71 in1006.1 mb 0.00 in0.0 mm 0.00 in0.0 mm 0.00 in0.0 mm
05:45 AM 32.2°F0.1°C 23.0°F-5.0°C 71% 0.3 mph E0.5 kmh E 2.2 mph3.5 kmh 29.71 in1006.1 mb 0.00 in0.0 mm 0.00 in0.0 mm 0.00 in0.0 mm
05:50 AM 32.4°F0.2°C 23.0°F-5.0°C 71% 0.7 mph E1.1 kmh E 2.9 mph4.7 kmh 29.71 in1006.1 mb 0.00 in0.0 mm 0.00 in0.0 mm 0.00 in0.0 mm
05:55 AM 32.7°F0.4°C 24.8°F-4.0°C 71% 0.6 mph E1.0 kmh E 2.9 mph4.7 kmh 29.71 in1006.1 mb 0.00 in0.0 mm 0.00 in0.0 mm 0.00 in0.0 mm
06:00 AM 32.9°F0.5°C 24.8°F-4.0°C 71% 0.3 mph E0.5 kmh E 2.7 mph4.3 kmh 29.71 in1006.1 mb 0.00 in0.0 mm 0.00 in0.0 mm 0.00 in0.0 mm
06:05 AM 32.9°F0.5°C 24.8°F-4.0°C 71% 0.4 mph E0.6 kmh E 2.7 mph4.3 kmh 29.71 in1006.1 mb 0.00 in0.0 mm 0.00 in0.0 mm 0.00 in0.0 mm
06:10 AM 33.1°F0.6°C 24.8°F-4.0°C 71% 0.2 mph ESE0.3 kmh ESE 0.9 mph1.4 kmh 29.71 in1006.1 mb 0.00 in0.0 mm 0.00 in0.0 mm 0.00 in0.0 mm
06:15 AM 33.6°F0.9°C 26.6°F-3.0°C 72% 0.3 mph E0.5 kmh E 0.9 mph1.4 kmh 29.71 in1006.1 mb 0.00 in0.0 mm 0.00 in0.0 mm 0.00 in0.0 mm
06:20 AM 34.0°F1.1°C 26.6°F-3.0°C 72% 0.1 mph E0.2 kmh E 0.9 mph1.4 kmh 29.71 in1006.1 mb 0.00 in0.0 mm 0.00 in0.0 mm 0.00 in0.0 mm
06:25 AM 34.3°F1.3°C 26.6°F-3.0°C 72% 0.2 mph E0.3 kmh E 1.1 mph1.8 kmh 29.71 in1006.1 mb 0.00 in0.0 mm 0.00 in0.0 mm 0.00 in0.0 mm
06:30 AM 34.9°F1.6°C 26.6°F-3.0°C 72% 0.4 mph ENE0.6 kmh ENE 1.1 mph1.8 kmh 29.71 in1006.1 mb 0.00 in0.0 mm 0.00 in0.0 mm 0.00 in0.0 mm
06:35 AM 35.2°F1.8°C 26.6°F-3.0°C 72% 0.2 mph NE0.3 kmh NE 1.1 mph1.8 kmh 29.71 in1006.1 mb 0.00 in0.0 mm 0.00 in0.0 mm 0.00 in0.0 mm
06:40 AM 35.6°F2.0°C 26.6°F-3.0°C 73% 0.1 mph NNE0.2 kmh NNE 1.1 mph1.8 kmh 29.71 in1006.1 mb 0.00 in0.0 mm 0.00 in0.0 mm 0.00 in0.0 mm
06:45 AM 36.0°F2.2°C 28.4°F-2.0°C 72% 0.2 mph SSE0.3 kmh SSE 0.9 mph1.4 kmh 29.71 in1006.1 mb 0.00 in0.0 mm 0.00 in0.0 mm 0.00 in0.0 mm
06:50 AM 36.3°F2.4°C 28.4°F-2.0°C 72% 0.5 mph SE0.8 kmh SE 1.3 mph2.1 kmh 29.71 in1006.1 mb 0.00 in0.0 mm 0.00 in0.0 mm 0.00 in0.0 mm
06:55 AM 36.7°F2.6°C 28.4°F-2.0°C 71% 0.6 mph ESE1.0 kmh ESE 1.3 mph2.1 kmh 29.71 in1006.1 mb 0.00 in0.0 mm 0.00 in0.0 mm 0.00 in0.0 mm
07:00 AM 37.2°F2.9°C 28.4°F-2.0°C 71% 0.4 mph E0.6 kmh E 1.3 mph2.1 kmh 29.71 in1006.1 mb 0.00 in0.0 mm 0.00 in0.0 mm 0.00 in0.0 mm
07:05 AM 37.6°F3.1°C 30.2°F-1.0°C 71% 0.3 mph SE0.5 kmh SE 1.3 mph2.1 kmh 29.71 in1006.1 mb 0.00 in0.0 mm 0.00 in0.0 mm 0.00 in0.0 mm
07:10 AM 37.9°F3.3°C 30.2°F-1.0°C 71% 0.6 mph S1.0 kmh S 2.2 mph3.5 kmh 29.71 in1006.1 mb 0.00 in0.0 mm 0.00 in0.0 mm 0.00 in0.0 mm
07:15 AM 38.5°F3.6°C 30.2°F-1.0°C 71% 1.0 mph SW1.6 kmh SW 2.9 mph4.7 kmh 29.71 in1006.1 mb 0.00 in0.0 mm 0.00 in0.0 mm 0.00 in0.0 mm
07:20 AM 39.2°F4.0°C 30.2°F-1.0°C 71% 1.5 mph SW2.4 kmh SW 2.9 mph4.7 kmh 29.71 in1006.1 mb 0.00 in0.0 mm 0.00 in0.0 mm 0.00 in0.0 mm
07:25 AM 39.9°F4.4°C 32.0°F0.0°C 71% 1.4 mph SW2.3 kmh SW 2.7 mph4.3 kmh 29.71 in1006.1 mb 0.00 in0.0 mm 0.00 in0.0 mm 0.00 in0.0 mm
07:30 AM 40.8°F4.9°C 32.0°F0.0°C 72% 1.5 mph SW2.4 kmh SW 2.7 mph4.3 kmh 29.74 in1007.1 mb 0.00 in0.0 mm 0.00 in0.0 mm 0.00 in0.0 mm
07:35 AM 41.5°F5.3°C 33.8°F1.0°C 72% 1.7 mph SW2.7 kmh SW 2.5 mph4.0 kmh 29.74 in1007.1 mb 0.00 in0.0 mm 0.00 in0.0 mm 0.00 in0.0 mm
07:40 AM 42.6°F5.9°C 33.8°F1.0°C 72% 1.5 mph WSW2.4 kmh WSW 2.5 mph4.0 kmh 29.74 in1007.1 mb 0.00 in0.0 mm 0.00 in0.0 mm 0.00 in0.0 mm
07:45 AM 43.3°F6.3°C 33.8°F1.0°C 71% 1.9 mph W3.1 kmh W 3.8 mph6.1 kmh 29.71 in1006.1 mb 0.00 in0.0 mm 0.00 in0.0 mm 0.00 in0.0 mm
07:50 AM 44.8°F7.1°C 35.6°F2.0°C 71% 3.6 mph WSW5.8 kmh WSW 7.2 mph11.6 kmh 29.71 in1006.1 mb 0.00 in0.0 mm 0.00 in0.0 mm 0.00 in0.0 mm
07:55 AM 45.5°F7.5°C 35.6°F2.0°C 70% 4.4 mph WSW7.1 kmh WSW 10.1 mph16.3 kmh 29.71 in1006.1 mb 0.00 in0.0 mm 0.00 in0.0 mm 0.00 in0.0 mm
08:00 AM 46.6°F8.1°C 37.4°F3.0°C 69% 4.4 mph W7.1 kmh W 10.1 mph16.3 kmh 29.71 in1006.1 mb 0.00 in0.0 mm 0.00 in0.0 mm 0.00 in0.0 mm
08:05 AM 46.9°F8.3°C 37.4°F3.0°C 68% 5.1 mph W8.2 kmh W 10.1 mph16.3 kmh 29.71 in1006.1 mb 0.00 in0.0 mm 0.00 in0.0 mm 0.00 in0.0 mm
08:10 AM 47.5°F8.6°C 37.4°F3.0°C 68% 3.1 mph WSW5.0 kmh WSW 7.8 mph12.6 kmh 29.71 in1006.1 mb 0.00 in0.0 mm 0.00 in0.0 mm 0.00 in0.0 mm
08:15 AM 47.8°F8.8°C 37.4°F3.0°C 67% 2.4 mph WSW3.9 kmh WSW 3.8 mph6.1 kmh 29.71 in1006.1 mb 0.00 in0.0 mm 0.00 in0.0 mm 0.00 in0.0 mm
08:20 AM 48.6°F9.2°C 37.4°F3.0°C 67% 2.9 mph WSW4.7 kmh WSW 3.8 mph6.1 kmh 29.71 in1006.1 mb 0.00 in0.0 mm 0.00 in0.0 mm 0.00 in0.0 mm
08:25 AM 49.1°F9.5°C 37.4°F3.0°C 66% 3.0 mph SW4.8 kmh SW 5.8 mph9.3 kmh 29.71 in1006.1 mb 0.00 in0.0 mm 0.00 in0.0 mm 0.00 in0.0 mm
08:30 AM 49.8°F9.9°C 39.2°F4.0°C 66% 3.3 mph SW5.3 kmh SW 6.5 mph10.5 kmh 29.71 in1006.1 mb 0.00 in0.0 mm 0.00 in0.0 mm 0.00 in0.0 mm
08:35 AM 50.0°F10.0°C 39.2°F4.0°C 65% 3.9 mph SW6.3 kmh SW 7.2 mph11.6 kmh 29.71 in1006.1 mb 0.00 in0.0 mm 0.00 in0.0 mm 0.00 in0.0 mm
08:40 AM 50.7°F10.4°C 39.2°F4.0°C 65% 3.8 mph SW6.1 kmh SW 7.2 mph11.6 kmh 29.71 in1006.1 mb 0.00 in0.0 mm 0.00 in0.0 mm 0.00 in0.0 mm
08:45 AM 52.0°F11.1°C 41.0°F5.0°C 64% 2.5 mph SW4.0 kmh SW 5.4 mph8.7 kmh 29.71 in1006.1 mb 0.00 in0.0 mm 0.00 in0.0 mm 0.00 in0.0 mm
08:50 AM 52.7°F11.5°C 41.0°F5.0°C 64% 2.3 mph WSW3.7 kmh WSW 4.0 mph6.4 kmh 29.71 in1006.1 mb 0.00 in0.0 mm 0.00 in0.0 mm 0.00 in0.0 mm
08:55 AM 53.6°F12.0°C 41.0°F5.0°C 63% 3.3 mph SW5.3 kmh SW 8.1 mph13.0 kmh 29.71 in1006.1 mb 0.00 in0.0 mm 0.00 in0.0 mm 0.00 in0.0 mm
09:00 AM 54.5°F12.5°C 42.8°F6.0°C 63% 3.8 mph SW6.1 kmh SW 8.1 mph13.0 kmh 29.71 in1006.1 mb 0.00 in0.0 mm 0.00 in0.0 mm 0.00 in0.0 mm
09:05 AM 55.0°F12.8°C 42.8°F6.0°C 62% 4.4 mph SW7.1 kmh SW 7.2 mph11.6 kmh 29.71 in1006.1 mb 0.00 in0.0 mm 0.00 in0.0 mm 0.00 in0.0 mm
09:10 AM 55.2°F12.9°C 42.8°F6.0°C 61% 5.4 mph WSW8.7 kmh WSW 7.8 mph12.6 kmh 29.71 in1006.1 mb 0.00 in0.0 mm 0.00 in0.0 mm 0.00 in0.0 mm
09:15 AM 55.8°F13.2°C 42.8°F6.0°C 61% 5.7 mph WSW9.2 kmh WSW 8.1 mph13.0 kmh 29.71 in1006.1 mb 0.00 in0.0 mm 0.00 in0.0 mm 0.00 in0.0 mm
09:20 AM 56.3°F13.5°C 42.8°F6.0°C 59% 6.8 mph WSW10.9 kmh WSW 8.5 mph13.7 kmh 29.71 in1006.1 mb 0.00 in0.0 mm 0.00 in0.0 mm 0.00 in0.0 mm
09:25 AM 56.7°F13.7°C 42.8°F6.0°C 58% 8.0 mph W12.9 kmh W 9.8 mph15.8 kmh 29.71 in1006.1 mb 0.00 in0.0 mm 0.00 in0.0 mm 0.00 in0.0 mm
09:30 AM 57.6°F14.2°C 42.8°F6.0°C 57% 7.0 mph WSW11.3 kmh WSW 9.8 mph15.8 kmh 29.71 in1006.1 mb 0.00 in0.0 mm 0.00 in0.0 mm 0.00 in0.0 mm
09:35 AM 58.3°F14.6°C 42.8°F6.0°C 56% 5.8 mph WSW9.3 kmh WSW 6.5 mph10.5 kmh 29.71 in1006.1 mb 0.00 in0.0 mm 0.00 in0.0 mm 0.00 in0.0 mm
09:40 AM 59.0°F15.0°C 42.8°F6.0°C 56% 5.5 mph WSW8.9 kmh WSW 7.8 mph12.6 kmh 29.71 in1006.1 mb 0.00 in0.0 mm 0.00 in0.0 mm 0.00 in0.0 mm
09:45 AM 59.7°F15.4°C 44.6°F7.0°C 56% 6.0 mph SW9.7 kmh SW 11.9 mph19.2 kmh 29.71 in1006.1 mb 0.00 in0.0 mm 0.00 in0.0 mm 0.00 in0.0 mm
09:50 AM 59.7°F15.4°C 42.8°F6.0°C 55% 6.5 mph SW10.5 kmh SW 11.9 mph19.2 kmh 29.71 in1006.1 mb 0.00 in0.0 mm 0.00 in0.0 mm 0.00 in0.0 mm
09:55 AM 59.4°F15.2°C 42.8°F6.0°C 54% 7.6 mph WSW12.2 kmh WSW 11.9 mph19.2 kmh 29.71 in1006.1 mb 0.00 in0.0 mm 0.00 in0.0 mm 0.00 in0.0 mm
10:00 AM 61.3°F16.3°C 44.6°F7.0°C 54% 6.8 mph WSW10.9 kmh WSW 9.6 mph15.4 kmh 29.71 in1006.1 mb 0.00 in0.0 mm 0.00 in0.0 mm 0.00 in0.0 mm
10:05 AM 60.1°F15.6°C 42.8°F6.0°C 54% 5.7 mph WSW9.2 kmh WSW 7.4 mph11.9 kmh 29.71 in1006.1 mb 0.00 in0.0 mm 0.00 in0.0 mm 0.00 in0.0 mm
10:10 AM 62.8°F17.1°C 46.4°F8.0°C 54% 5.2 mph WSW8.4 kmh WSW 8.7 mph14.0 kmh 29.71 in1006.1 mb 0.00 in0.0 mm 0.00 in0.0 mm 0.00 in0.0 mm
10:15 AM 62.8°F17.1°C 46.4°F8.0°C 53% 5.6 mph SW9.0 kmh SW 10.3 mph16.6 kmh 29.71 in1006.1 mb 0.00 in0.0 mm 0.00 in0.0 mm 0.00 in0.0 mm
10:20 AM 61.5°F16.4°C 44.6°F7.0°C 53% 6.9 mph WSW11.1 kmh WSW 11.0 mph17.7 kmh 29.71 in1006.1 mb 0.00 in0.0 mm 0.00 in0.0 mm 0.00 in0.0 mm
10:25 AM 60.4°F15.8°C 42.8°F6.0°C 53% 7.0 mph WSW11.3 kmh WSW 11.0 mph17.7 kmh 29.71 in1006.1 mb 0.00 in0.0 mm 0.00 in0.0 mm 0.00 in0.0 mm
10:30 AM 61.3°F16.3°C 44.6°F7.0°C 53% 6.1 mph WSW9.8 kmh WSW 10.1 mph16.3 kmh 29.71 in1006.1 mb 0.00 in0.0 mm 0.00 in0.0 mm 0.00 in0.0 mm
10:35 AM 63.5°F17.5°C 46.4°F8.0°C 52% 5.6 mph WSW9.0 kmh WSW 9.4 mph15.1 kmh 29.71 in1006.1 mb 0.00 in0.0 mm 0.00 in0.0 mm 0.00 in0.0 mm
10:40 AM 63.1°F17.3°C 44.6°F7.0°C 51% 5.4 mph WSW8.7 kmh WSW 12.5 mph20.1 kmh 29.71 in1006.1 mb 0.00 in0.0 mm 0.00 in0.0 mm 0.00 in0.0 mm
10:45 AM 62.8°F17.1°C 44.6°F7.0°C 51% 6.7 mph WSW10.8 kmh WSW 12.5 mph20.1 kmh 29.71 in1006.1 mb 0.00 in0.0 mm 0.00 in0.0 mm 0.00 in0.0 mm
10:50 AM 63.7°F17.6°C 44.6°F7.0°C 50% 7.3 mph SW11.7 kmh SW 12.5 mph20.1 kmh 29.71 in1006.1 mb 0.00 in0.0 mm 0.00 in0.0 mm 0.00 in0.0 mm
10:55 AM 64.8°F18.2°C 46.4°F8.0°C 50% 7.0 mph SW11.3 kmh SW 10.5 mph16.9 kmh 29.71 in1006.1 mb 0.00 in0.0 mm 0.00 in0.0 mm 0.00 in0.0 mm
11:00 AM 65.1°F18.4°C 46.4°F8.0°C 49% 8.4 mph WSW13.5 kmh WSW 13.2 mph21.2 kmh 29.71 in1006.1 mb 0.00 in0.0 mm 0.00 in0.0 mm 0.00 in0.0 mm
11:05 AM 65.3°F18.5°C 46.4°F8.0°C 49% 7.6 mph SW12.2 kmh SW 13.2 mph21.2 kmh 29.71 in1006.1 mb 0.00 in0.0 mm 0.00 in0.0 mm 0.00 in0.0 mm
11:10 AM 61.7°F16.5°C 42.8°F6.0°C 50% 6.0 mph SW9.7 kmh SW 8.7 mph14.0 kmh 29.71 in1006.1 mb 0.00 in0.0 mm 0.00 in0.0 mm 0.00 in0.0 mm
11:15 AM 61.0°F16.1°C 42.8°F6.0°C 51% 4.5 mph SW7.2 kmh SW 8.1 mph13.0 kmh 29.71 in1006.1 mb 0.00 in0.0 mm 0.00 in0.0 mm 0.00 in0.0 mm
11:20 AM 60.3°F15.7°C 42.8°F6.0°C 51% 3.8 mph SW6.1 kmh SW 8.1 mph13.0 kmh 29.71 in1006.1 mb 0.00 in0.0 mm 0.00 in0.0 mm 0.00 in0.0 mm
11:25 AM 60.6°F15.9°C 42.8°F6.0°C 51% 4.6 mph SW7.4 kmh SW 8.1 mph13.0 kmh 29.71 in1006.1 mb 0.00 in0.0 mm 0.00 in0.0 mm 0.00 in0.0 mm
11:30 AM 60.1°F15.6°C 42.8°F6.0°C 51% 4.5 mph SW7.2 kmh SW 12.3 mph19.8 kmh 29.71 in1006.1 mb 0.00 in0.0 mm 0.00 in0.0 mm 0.00 in0.0 mm
11:35 AM 62.6°F17.0°C 44.6°F7.0°C 51% 4.9 mph SW7.9 kmh SW 12.3 mph19.8 kmh 29.71 in1006.1 mb 0.00 in0.0 mm 0.00 in0.0 mm 0.00 in0.0 mm
11:40 AM 64.6°F18.1°C 46.4°F8.0°C 50% 5.0 mph SW8.0 kmh SW 9.6 mph15.4 kmh 29.71 in1006.1 mb 0.00 in0.0 mm 0.00 in0.0 mm 0.00 in0.0 mm
11:45 AM 63.5°F17.5°C 44.6°F7.0°C 49% 5.7 mph WSW9.2 kmh WSW 9.6 mph15.4 kmh 29.71 in1006.1 mb 0.00 in0.0 mm 0.00 in0.0 mm 0.00 in0.0 mm
11:50 AM 66.4°F19.1°C 46.4°F8.0°C 47% 6.8 mph W10.9 kmh W 13.2 mph21.2 kmh 29.71 in1006.1 mb 0.00 in0.0 mm 0.00 in0.0 mm 0.00 in0.0 mm
11:55 AM 66.0°F18.9°C 44.6°F7.0°C 46% 7.9 mph SW12.7 kmh SW 13.2 mph21.2 kmh 29.71 in1006.1 mb 0.00 in0.0 mm 0.00 in0.0 mm 0.00 in0.0 mm
12:00 PM 65.7°F18.7°C 44.6°F7.0°C 46% 7.8 mph SW12.6 kmh SW 13.2 mph21.2 kmh 29.71 in1006.1 mb 0.00 in0.0 mm 0.00 in0.0 mm 0.00 in0.0 mm
12:05 PM 65.3°F18.5°C 44.6°F7.0°C 47% 7.2 mph WSW11.6 kmh WSW 13.2 mph21.2 kmh 29.71 in1006.1 mb 0.00 in0.0 mm 0.00 in0.0 mm 0.00 in0.0 mm
12:10 PM 64.4°F18.0°C 42.8°F6.0°C 46% 7.8 mph WSW12.6 kmh WSW 13.2 mph21.2 kmh 29.71 in1006.1 mb 0.00 in0.0 mm 0.00 in0.0 mm 0.00 in0.0 mm
12:15 PM 64.0°F17.8°C 42.8°F6.0°C 46% 7.6 mph WSW12.2 kmh WSW 13.0 mph20.9 kmh 29.71 in1006.1 mb 0.00 in0.0 mm 0.00 in0.0 mm 0.00 in0.0 mm
12:20 PM 62.8°F17.1°C 42.8°F6.0°C 47% 7.0 mph SW11.3 kmh SW 15.2 mph24.5 kmh 29.71 in1006.1 mb 0.00 in0.0 mm 0.00 in0.0 mm 0.00 in0.0 mm
12:25 PM 63.7°F17.6°C 42.8°F6.0°C 46% 5.5 mph SSW8.9 kmh SSW 15.2 mph24.5 kmh 29.71 in1006.1 mb 0.00 in0.0 mm 0.00 in0.0 mm 0.00 in0.0 mm
12:30 PM 65.7°F18.7°C 44.6°F7.0°C 46% 5.3 mph SW8.5 kmh SW 10.3 mph16.6 kmh 29.71 in1006.1 mb 0.00 in0.0 mm 0.00 in0.0 mm 0.00 in0.0 mm
12:35 PM 66.0°F18.9°C 44.6°F7.0°C 46% 5.9 mph WSW9.5 kmh WSW 10.3 mph16.6 kmh 29.71 in1006.1 mb 0.00 in0.0 mm 0.00 in0.0 mm 0.00 in0.0 mm
12:40 PM 63.1°F17.3°C 41.0°F5.0°C 45% 6.9 mph WSW11.1 kmh WSW 13.0 mph20.9 kmh 29.71 in1006.1 mb 0.00 in0.0 mm 0.00 in0.0 mm 0.00 in0.0 mm
12:45 PM 63.3°F17.4°C 42.8°F6.0°C 45% 7.9 mph SW12.7 kmh SW 13.0 mph20.9 kmh 29.71 in1006.1 mb 0.00 in0.0 mm 0.00 in0.0 mm 0.00 in0.0 mm
12:50 PM 65.8°F18.8°C 44.6°F7.0°C 45% 6.5 mph SW10.5 kmh SW 12.8 mph20.6 kmh 29.71 in1006.1 mb 0.00 in0.0 mm 0.00 in0.0 mm 0.00 in0.0 mm
12:55 PM 66.2°F19.0°C 42.8°F6.0°C 44% 6.2 mph WSW10.0 kmh WSW 12.8 mph20.6 kmh 29.71 in1006.1 mb 0.00 in0.0 mm 0.00 in0.0 mm 0.00 in0.0 mm
01:00 PM 66.7°F19.3°C 42.8°F6.0°C 43% 6.6 mph SW10.6 kmh SW 11.0 mph17.7 kmh 29.71 in1006.1 mb 0.00 in0.0 mm 0.00 in0.0 mm 0.00 in0.0 mm
01:05 PM 68.2°F20.1°C 44.6°F7.0°C 43% 5.6 mph SW9.0 kmh SW 8.7 mph14.0 kmh 29.71 in1006.1 mb 0.00 in0.0 mm 0.00 in0.0 mm 0.00 in0.0 mm
01:10 PM 67.6°F19.8°C 44.6°F7.0°C 43% 4.9 mph SW7.9 kmh SW 7.8 mph12.6 kmh 29.71 in1006.1 mb 0.00 in0.0 mm 0.00 in0.0 mm 0.00 in0.0 mm
01:15 PM 66.6°F19.2°C 42.8°F6.0°C 42% 7.7 mph SW12.4 kmh SW 16.8 mph27.0 kmh 29.71 in1006.1 mb 0.00 in0.0 mm 0.00 in0.0 mm 0.00 in0.0 mm
01:20 PM 66.9°F19.4°C 42.8°F6.0°C 42% 8.4 mph SW13.5 kmh SW 16.8 mph27.0 kmh 29.71 in1006.1 mb 0.00 in0.0 mm 0.00 in0.0 mm 0.00 in0.0 mm
01:25 PM 66.7°F19.3°C 42.8°F6.0°C 41% 8.3 mph WSW13.4 kmh WSW 17.0 mph27.4 kmh 29.71 in1006.1 mb 0.00 in0.0 mm 0.00 in0.0 mm 0.00 in0.0 mm
01:30 PM 66.7°F19.3°C 42.8°F6.0°C 41% 9.6 mph SW15.4 kmh SW 17.0 mph27.4 kmh 29.71 in1006.1 mb 0.00 in0.0 mm 0.00 in0.0 mm 0.00 in0.0 mm
01:35 PM 66.7°F19.3°C 42.8°F6.0°C 42% 9.2 mph SW14.8 kmh SW 14.8 mph23.8 kmh 29.71 in1006.1 mb 0.00 in0.0 mm 0.00 in0.0 mm 0.00 in0.0 mm
01:40 PM 65.7°F18.7°C 42.8°F6.0°C 42% 8.1 mph SW13.0 kmh SW 13.6 mph21.9 kmh 29.71 in1006.1 mb 0.00 in0.0 mm 0.00 in0.0 mm 0.00 in0.0 mm
01:45 PM 66.7°F19.3°C 42.8°F6.0°C 41% 7.5 mph W12.1 kmh W 10.3 mph16.6 kmh 29.71 in1006.1 mb 0.00 in0.0 mm 0.00 in0.0 mm 0.00 in0.0 mm
01:50 PM 64.9°F18.3°C 41.0°F5.0°C 42% 6.4 mph WSW10.3 kmh WSW 10.3 mph16.6 kmh 29.71 in1006.1 mb 0.00 in0.0 mm 0.00 in0.0 mm 0.00 in0.0 mm
01:55 PM 63.9°F17.7°C 41.0°F5.0°C 43% 6.5 mph SW10.5 kmh SW 9.8 mph15.8 kmh 29.71 in1006.1 mb 0.00 in0.0 mm 0.00 in0.0 mm 0.00 in0.0 mm
02:00 PM 63.1°F17.3°C 39.2°F4.0°C 42% 6.6 mph SW10.6 kmh SW 9.8 mph15.8 kmh 29.71 in1006.1 mb 0.00 in0.0 mm 0.00 in0.0 mm 0.00 in0.0 mm
02:05 PM 63.3°F17.4°C 41.0°F5.0°C 43% 5.6 mph WSW9.0 kmh WSW 9.6 mph15.4 kmh 29.71 in1006.1 mb 0.00 in0.0 mm 0.00 in0.0 mm 0.00 in0.0 mm
02:10 PM 63.0°F17.2°C 39.2°F4.0°C 43% 6.0 mph SW9.7 kmh SW 10.3 mph16.6 kmh 29.71 in1006.1 mb 0.00 in0.0 mm 0.00 in0.0 mm 0.00 in0.0 mm
02:15 PM 62.2°F16.8°C 39.2°F4.0°C 43% 7.0 mph SW11.3 kmh SW 10.5 mph16.9 kmh 29.68 in1005.1 mb 0.00 in0.0 mm 0.00 in0.0 mm 0.00 in0.0 mm
02:20 PM 63.7°F17.6°C 41.0°F5.0°C 43% 7.1 mph SW11.4 kmh SW 10.7 mph17.2 kmh 29.68 in1005.1 mb 0.00 in0.0 mm 0.00 in0.0 mm 0.00 in0.0 mm
02:25 PM 62.8°F17.1°C 39.2°F4.0°C 43% 7.0 mph SSW11.3 kmh SSW 10.7 mph17.2 kmh 29.68 in1005.1 mb 0.00 in0.0 mm 0.00 in0.0 mm 0.00 in0.0 mm
02:30 PM 62.2°F16.8°C 41.0°F5.0°C 44% 7.3 mph SSW11.7 kmh SSW 13.0 mph20.9 kmh 29.68 in1005.1 mb 0.00 in0.0 mm 0.00 in0.0 mm 0.00 in0.0 mm
02:35 PM 62.4°F16.9°C 39.2°F4.0°C 43% 7.5 mph SW12.1 kmh SW 14.1 mph22.7 kmh 29.68 in1005.1 mb 0.00 in0.0 mm 0.00 in0.0 mm 0.00 in0.0 mm
02:40 PM 63.1°F17.3°C 39.2°F4.0°C 42% 7.3 mph SSW11.7 kmh SSW 14.3 mph23.0 kmh 29.68 in1005.1 mb 0.00 in0.0 mm 0.00 in0.0 mm 0.00 in0.0 mm
02:45 PM 62.6°F17.0°C 39.2°F4.0°C 42% 6.7 mph SW10.8 kmh SW 14.3 mph23.0 kmh 29.68 in1005.1 mb 0.00 in0.0 mm 0.00 in0.0 mm 0.00 in0.0 mm
02:50 PM 63.3°F17.4°C 39.2°F4.0°C 41% 6.8 mph SW10.9 kmh SW 10.5 mph16.9 kmh 29.68 in1005.1 mb 0.00 in0.0 mm 0.00 in0.0 mm 0.00 in0.0 mm
02:55 PM 63.0°F17.2°C 39.2°F4.0°C 41% 7.9 mph SW12.7 kmh SW 13.0 mph20.9 kmh 29.68 in1005.1 mb 0.00 in0.0 mm 0.00 in0.0 mm 0.00 in0.0 mm
03:00 PM 64.4°F18.0°C 39.2°F4.0°C 41% 8.3 mph WSW13.4 kmh WSW 13.0 mph20.9 kmh 29.68 in1005.1 mb 0.00 in0.0 mm 0.00 in0.0 mm 0.00 in0.0 mm
03:05 PM 64.6°F18.1°C 39.2°F4.0°C 40% 7.7 mph WSW12.4 kmh WSW 10.1 mph16.3 kmh 29.68 in1005.1 mb 0.00 in0.0 mm 0.00 in0.0 mm 0.00 in0.0 mm
03:10 PM 64.0°F17.8°C 39.2°F4.0°C 39% 7.9 mph WSW12.7 kmh WSW 10.1 mph16.3 kmh 29.68 in1005.1 mb 0.00 in0.0 mm 0.00 in0.0 mm 0.00 in0.0 mm
03:15 PM 64.0°F17.8°C 39.2°F4.0°C 40% 6.8 mph WSW10.9 kmh WSW 9.6 mph15.4 kmh 29.68 in1005.1 mb 0.00 in0.0 mm 0.00 in0.0 mm 0.00 in0.0 mm
03:20 PM 62.2°F16.8°C 37.4°F3.0°C 40% 8.0 mph SW12.9 kmh SW 16.8 mph27.0 kmh 29.68 in1005.1 mb 0.00 in0.0 mm 0.00 in0.0 mm 0.00 in0.0 mm
03:25 PM 61.3°F16.3°C 37.4°F3.0°C 40% 8.5 mph SSW13.7 kmh SSW 16.8 mph27.0 kmh 29.68 in1005.1 mb 0.00 in0.0 mm 0.00 in0.0 mm 0.00 in0.0 mm
03:30 PM 61.2°F16.2°C 37.4°F3.0°C 41% 7.3 mph SSW11.7 kmh SSW 16.8 mph27.0 kmh 29.68 in1005.1 mb 0.00 in0.0 mm 0.00 in0.0 mm 0.00 in0.0 mm
03:35 PM 61.7°F16.5°C 37.4°F3.0°C 42% 5.5 mph SSW8.9 kmh SSW 8.7 mph14.0 kmh 29.68 in1005.1 mb 0.00 in0.0 mm 0.00 in0.0 mm 0.00 in0.0 mm
03:40 PM 62.1°F16.7°C 37.4°F3.0°C 41% 6.6 mph S10.6 kmh S 11.0 mph17.7 kmh 29.68 in1005.1 mb 0.00 in0.0 mm 0.00 in0.0 mm 0.00 in0.0 mm
03:45 PM 63.7°F17.6°C 39.2°F4.0°C 41% 7.1 mph S11.4 kmh S 11.0 mph17.7 kmh 29.68 in1005.1 mb 0.00 in0.0 mm 0.00 in0.0 mm 0.00 in0.0 mm
03:50 PM 63.9°F17.7°C 39.2°F4.0°C 40% 6.3 mph SW10.1 kmh SW 9.6 mph15.4 kmh 29.68 in1005.1 mb 0.00 in0.0 mm 0.00 in0.0 mm 0.00 in0.0 mm
03:55 PM 63.9°F17.7°C 39.2°F4.0°C 40% 6.6 mph WSW10.6 kmh WSW 11.0 mph17.7 kmh 29.68 in1005.1 mb 0.00 in0.0 mm 0.00 in0.0 mm 0.00 in0.0 mm
04:00 PM 63.9°F17.7°C 39.2°F4.0°C 40% 7.1 mph WSW11.4 kmh WSW 12.5 mph20.1 kmh 29.65 in1004.1 mb 0.00 in0.0 mm 0.00 in0.0 mm 0.00 in0.0 mm
04:05 PM 63.3°F17.4°C 39.2°F4.0°C 41% 8.5 mph WSW13.7 kmh WSW 12.5 mph20.1 kmh 29.65 in1004.1 mb 0.00 in0.0 mm 0.00 in0.0 mm 0.00 in0.0 mm
04:10 PM 63.3°F17.4°C 39.2°F4.0°C 40% 7.9 mph SW12.7 kmh SW 11.0 mph17.7 kmh 29.65 in1004.1 mb 0.00 in0.0 mm 0.00 in0.0 mm 0.00 in0.0 mm
04:15 PM 62.2°F16.8°C 37.4°F3.0°C 39% 7.5 mph SW12.1 kmh SW 11.9 mph19.2 kmh 29.68 in1005.1 mb 0.00 in0.0 mm 0.00 in0.0 mm 0.00 in0.0 mm
04:20 PM 62.6°F17.0°C 37.4°F3.0°C 40% 7.0 mph WSW11.3 kmh WSW 11.9 mph19.2 kmh 29.68 in1005.1 mb 0.00 in0.0 mm 0.00 in0.0 mm 0.00 in0.0 mm
04:25 PM 62.4°F16.9°C 37.4°F3.0°C 40% 6.0 mph SW9.7 kmh SW 8.7 mph14.0 kmh 29.68 in1005.1 mb 0.00 in0.0 mm 0.00 in0.0 mm 0.00 in0.0 mm
04:30 PM 62.1°F16.7°C 37.4°F3.0°C 40% 7.3 mph SSW11.7 kmh SSW 12.3 mph19.8 kmh 29.65 in1004.1 mb 0.00 in0.0 mm 0.00 in0.0 mm 0.00 in0.0 mm
04:35 PM 61.7°F16.5°C 37.4°F3.0°C 39% 7.7 mph SW12.4 kmh SW 12.3 mph19.8 kmh 29.65 in1004.1 mb 0.00 in0.0 mm 0.00 in0.0 mm 0.00 in0.0 mm
04:40 PM 61.2°F16.2°C 37.4°F3.0°C 40% 6.2 mph SW10.0 kmh SW 12.8 mph20.6 kmh 29.65 in1004.1 mb 0.00 in0.0 mm 0.00 in0.0 mm 0.00 in0.0 mm
04:45 PM 61.0°F16.1°C 37.4°F3.0°C 41% 4.9 mph SW7.9 kmh SW 12.8 mph20.6 kmh 29.65 in1004.1 mb 0.00 in0.0 mm 0.00 in0.0 mm 0.00 in0.0 mm
04:50 PM 60.4°F15.8°C 37.4°F3.0°C 41% 5.5 mph SSW8.9 kmh SSW 10.5 mph16.9 kmh 29.65 in1004.1 mb 0.00 in0.0 mm 0.00 in0.0 mm 0.00 in0.0 mm
04:55 PM 60.3°F15.7°C 37.4°F3.0°C 41% 6.5 mph SSW10.5 kmh SSW 10.5 mph16.9 kmh 29.65 in1004.1 mb 0.00 in0.0 mm 0.00 in0.0 mm 0.00 in0.0 mm
05:00 PM 59.7°F15.4°C 35.6°F2.0°C 41% 7.5 mph SSW12.1 kmh SSW 11.0 mph17.7 kmh 29.65 in1004.1 mb 0.00 in0.0 mm 0.00 in0.0 mm 0.00 in0.0 mm
05:05 PM 59.4°F15.2°C 35.6°F2.0°C 41% 6.5 mph SW10.5 kmh SW 11.0 mph17.7 kmh 29.65 in1004.1 mb 0.00 in0.0 mm 0.00 in0.0 mm 0.00 in0.0 mm
05:10 PM 59.2°F15.1°C 35.6°F2.0°C 41% 6.1 mph SSW9.8 kmh SSW 8.1 mph13.0 kmh 29.65 in1004.1 mb 0.00 in0.0 mm 0.00 in0.0 mm 0.00 in0.0 mm
05:15 PM 59.0°F15.0°C 35.6°F2.0°C 42% 6.8 mph SSW10.9 kmh SSW 16.8 mph27.0 kmh 29.65 in1004.1 mb 0.00 in0.0 mm 0.00 in0.0 mm 0.00 in0.0 mm
05:20 PM 58.8°F14.9°C 35.6°F2.0°C 43% 6.7 mph S10.8 kmh S 16.8 mph27.0 kmh 29.65 in1004.1 mb 0.00 in0.0 mm 0.00 in0.0 mm 0.00 in0.0 mm
05:25 PM 58.6°F14.8°C 35.6°F2.0°C 42% 7.7 mph SSW12.4 kmh SSW 10.3 mph16.6 kmh 29.65 in1004.1 mb 0.00 in0.0 mm 0.00 in0.0 mm 0.00 in0.0 mm
05:30 PM 58.5°F14.7°C 35.6°F2.0°C 42% 6.9 mph SSW11.1 kmh SSW 10.3 mph16.6 kmh 29.65 in1004.1 mb 0.00 in0.0 mm 0.00 in0.0 mm 0.00 in0.0 mm
05:35 PM 58.3°F14.6°C 35.6°F2.0°C 42% 5.4 mph SSW8.7 kmh SSW 8.5 mph13.7 kmh 29.65 in1004.1 mb 0.00 in0.0 mm 0.00 in0.0 mm 0.00 in0.0 mm
05:40 PM 58.3°F14.6°C 35.6°F2.0°C 42% 5.5 mph S8.9 kmh S 8.5 mph13.7 kmh 29.65 in1004.1 mb 0.00 in0.0 mm 0.00 in0.0 mm 0.00 in0.0 mm
05:45 PM 58.1°F14.5°C 35.6°F2.0°C 42% 6.1 mph SSW9.8 kmh SSW 10.7 mph17.2 kmh 29.65 in1004.1 mb 0.00 in0.0 mm 0.00 in0.0 mm 0.00 in0.0 mm
05:50 PM 58.3°F14.6°C 35.6°F2.0°C 42% 6.4 mph SSW10.3 kmh SSW 10.7 mph17.2 kmh 29.65 in1004.1 mb 0.00 in0.0 mm 0.00 in0.0 mm 0.00 in0.0 mm
05:55 PM 58.1°F14.5°C 35.6°F2.0°C 42% 8.2 mph SSW13.2 kmh SSW 15.7 mph25.3 kmh 29.65 in1004.1 mb 0.00 in0.0 mm 0.00 in0.0 mm 0.00 in0.0 mm
06:00 PM 58.1°F14.5°C 35.6°F2.0°C 42% 7.9 mph SSW12.7 kmh SSW 15.7 mph25.3 kmh 29.65 in1004.1 mb 0.00 in0.0 mm 0.00 in0.0 mm 0.00 in0.0 mm
06:05 PM 58.1°F14.5°C 35.6°F2.0°C 42% 5.2 mph SW8.4 kmh SW 10.5 mph16.9 kmh 29.65 in1004.1 mb 0.00 in0.0 mm 0.00 in0.0 mm 0.00 in0.0 mm
06:10 PM 57.9°F14.4°C 35.6°F2.0°C 42% 5.2 mph SW8.4 kmh SW 10.5 mph16.9 kmh 29.65 in1004.1 mb 0.00 in0.0 mm 0.00 in0.0 mm 0.00 in0.0 mm
06:15 PM 57.6°F14.2°C 35.6°F2.0°C 43% 5.3 mph SW8.5 kmh SW 7.8 mph12.6 kmh 29.65 in1004.1 mb 0.00 in0.0 mm 0.00 in0.0 mm 0.00 in0.0 mm
06:20 PM 57.4°F14.1°C 35.6°F2.0°C 43% 5.0 mph SW8.0 kmh SW 8.5 mph13.7 kmh 29.65 in1004.1 mb 0.00 in0.0 mm 0.00 in0.0 mm 0.00 in0.0 mm
06:25 PM 57.0°F13.9°C 33.8°F1.0°C 43% 5.3 mph SW8.5 kmh SW 8.5 mph13.7 kmh 29.65 in1004.1 mb 0.00 in0.0 mm 0.00 in0.0 mm 0.00 in0.0 mm
06:30 PM 56.7°F13.7°C 35.6°F2.0°C 44% 5.0 mph SW8.0 kmh SW 8.5 mph13.7 kmh 29.65 in1004.1 mb 0.00 in0.0 mm 0.00 in0.0 mm 0.00 in0.0 mm
06:35 PM 56.3°F13.5°C 35.6°F2.0°C 44% 4.7 mph SW7.6 kmh SW 8.5 mph13.7 kmh 29.65 in1004.1 mb 0.00 in0.0 mm 0.00 in0.0 mm 0.00 in0.0 mm
06:40 PM 55.9°F13.3°C 33.8°F1.0°C 44% 3.9 mph WSW6.3 kmh WSW 8.1 mph13.0 kmh 29.65 in1004.1 mb 0.00 in0.0 mm 0.00 in0.0 mm 0.00 in0.0 mm
06:45 PM 55.8°F13.2°C 35.6°F2.0°C 45% 4.7 mph SW7.6 kmh SW 12.1 mph19.5 kmh 29.65 in1004.1 mb 0.00 in0.0 mm 0.00 in0.0 mm 0.00 in0.0 mm
06:50 PM 55.6°F13.1°C 35.6°F2.0°C 45% 5.5 mph SSW8.9 kmh SSW 12.1 mph19.5 kmh 29.65 in1004.1 mb 0.00 in0.0 mm 0.00 in0.0 mm 0.00 in0.0 mm
06:55 PM 55.4°F13.0°C 35.6°F2.0°C 45% 4.8 mph SW7.7 kmh SW 12.1 mph19.5 kmh 29.65 in1004.1 mb 0.00 in0.0 mm 0.00 in0.0 mm 0.00 in0.0 mm
07:00 PM 55.0°F12.8°C 35.6°F2.0°C 46% 3.8 mph SW6.1 kmh SW 7.2 mph11.6 kmh 29.65 in1004.1 mb 0.00 in0.0 mm 0.00 in0.0 mm 0.00 in0.0 mm
07:05 PM 55.0°F12.8°C 35.6°F2.0°C 46% 3.5 mph SSW5.6 kmh SSW 7.2 mph11.6 kmh 29.65 in1004.1 mb 0.00 in0.0 mm 0.00 in0.0 mm 0.00 in0.0 mm
07:10 PM 54.9°F12.7°C 35.6°F2.0°C 46% 2.8 mph SSW4.5 kmh SSW 5.6 mph9.0 kmh 29.65 in1004.1 mb 0.00 in0.0 mm 0.00 in0.0 mm 0.00 in0.0 mm
07:15 PM 54.7°F12.6°C 33.8°F1.0°C 46% 3.0 mph SW4.8 kmh SW 6.3 mph10.1 kmh 29.65 in1004.1 mb 0.00 in0.0 mm 0.00 in0.0 mm 0.00 in0.0 mm
07:20 PM 54.3°F12.4°C 33.8°F1.0°C 46% 4.6 mph S7.4 kmh S 8.1 mph13.0 kmh 29.65 in1004.1 mb 0.00 in0.0 mm 0.00 in0.0 mm 0.00 in0.0 mm
07:25 PM 54.1°F12.3°C 33.8°F1.0°C 46% 5.4 mph SSW8.7 kmh SSW 8.5 mph13.7 kmh 29.65 in1004.1 mb 0.00 in0.0 mm 0.00 in0.0 mm 0.00 in0.0 mm
07:30 PM 54.0°F12.2°C 33.8°F1.0°C 46% 4.7 mph SW7.6 kmh SW 8.5 mph13.7 kmh 29.65 in1004.1 mb 0.00 in0.0 mm 0.00 in0.0 mm 0.00 in0.0 mm
07:35 PM 53.8°F12.1°C 33.8°F1.0°C 46% 4.7 mph SSW7.6 kmh SSW 10.3 mph16.6 kmh 29.65 in1004.1 mb 0.00 in0.0 mm 0.00 in0.0 mm 0.00 in0.0 mm
07:40 PM 53.6°F12.0°C 32.0°F0.0°C 45% 4.9 mph S7.9 kmh S 10.3 mph16.6 kmh 29.65 in1004.1 mb 0.00 in0.0 mm 0.00 in0.0 mm 0.00 in0.0 mm
07:45 PM 53.4°F11.9°C 32.0°F0.0°C 45% 5.7 mph SSW9.2 kmh SSW 9.4 mph15.1 kmh 29.65 in1004.1 mb 0.00 in0.0 mm 0.00 in0.0 mm 0.00 in0.0 mm
07:50 PM 53.2°F11.8°C 32.0°F0.0°C 45% 5.3 mph SW8.5 kmh SW 9.4 mph15.1 kmh 29.65 in1004.1 mb 0.00 in0.0 mm 0.00 in0.0 mm 0.00 in0.0 mm
07:55 PM 52.9°F11.6°C 32.0°F0.0°C 45% 4.7 mph SW7.6 kmh SW 9.4 mph15.1 kmh 29.65 in1004.1 mb 0.00 in0.0 mm 0.00 in0.0 mm 0.00 in0.0 mm
08:00 PM 52.9°F11.6°C 32.0°F0.0°C 45% 4.3 mph SW6.9 kmh SW 8.1 mph13.0 kmh 29.65 in1004.1 mb 0.00 in0.0 mm 0.00 in0.0 mm 0.00 in0.0 mm
08:05 PM 52.7°F11.5°C 32.0°F0.0°C 45% 5.6 mph SW9.0 kmh SW 12.1 mph19.5 kmh 29.65 in1004.1 mb 0.00 in0.0 mm 0.00 in0.0 mm 0.00 in0.0 mm
08:10 PM 52.7°F11.5°C 32.0°F0.0°C 45% 5.3 mph SSW8.5 kmh SSW 12.1 mph19.5 kmh 29.65 in1004.1 mb 0.00 in0.0 mm 0.00 in0.0 mm 0.00 in0.0 mm
08:15 PM 52.5°F11.4°C 32.0°F0.0°C 45% 3.7 mph SSW6.0 kmh SSW 6.0 mph9.7 kmh 29.65 in1004.1 mb 0.00 in0.0 mm 0.00 in0.0 mm 0.00 in0.0 mm
08:20 PM 52.3°F11.3°C 32.0°F0.0°C 45% 3.4 mph SSW5.5 kmh SSW 6.0 mph9.7 kmh 29.65 in1004.1 mb 0.00 in0.0 mm 0.00 in0.0 mm 0.00 in0.0 mm
08:25 PM 52.3°F11.3°C 32.0°F0.0°C 45% 3.1 mph SW5.0 kmh SW 6.0 mph9.7 kmh 29.65 in1004.1 mb 0.00 in0.0 mm 0.00 in0.0 mm 0.00 in0.0 mm
08:30 PM 52.2°F11.2°C 32.0°F0.0°C 45% 3.3 mph SW5.3 kmh SW 6.0 mph9.7 kmh 29.65 in1004.1 mb 0.00 in0.0 mm 0.00 in0.0 mm 0.00 in0.0 mm
08:35 PM 52.0°F11.1°C 32.0°F0.0°C 45% 3.7 mph SSW6.0 kmh SSW 6.5 mph10.5 kmh 29.65 in1004.1 mb 0.00 in0.0 mm 0.00 in0.0 mm 0.00 in0.0 mm
08:40 PM 52.0°F11.1°C 32.0°F0.0°C 45% 3.6 mph SSW5.8 kmh SSW 6.5 mph10.5 kmh 29.65 in1004.1 mb 0.00 in0.0 mm 0.00 in0.0 mm 0.00 in0.0 mm
08:45 PM 51.8°F11.0°C 32.0°F0.0°C 46% 2.6 mph SSW4.2 kmh SSW 4.9 mph7.9 kmh 29.62 in1003.0 mb 0.00 in0.0 mm 0.00 in0.0 mm 0.00 in0.0 mm
08:50 PM 51.6°F10.9°C 32.0°F0.0°C 46% 2.8 mph S4.5 kmh S 4.3 mph6.9 kmh 29.62 in1003.0 mb 0.00 in0.0 mm 0.00 in0.0 mm 0.00 in0.0 mm
08:55 PM 51.4°F10.8°C 32.0°F0.0°C 46% 3.3 mph S5.3 kmh S 5.4 mph8.7 kmh 29.62 in1003.0 mb 0.00 in0.0 mm 0.00 in0.0 mm 0.00 in0.0 mm
09:00 PM 51.3°F10.7°C 32.0°F0.0°C 46% 3.3 mph S5.3 kmh S 5.4 mph8.7 kmh 29.62 in1003.0 mb 0.00 in0.0 mm 0.00 in0.0 mm 0.00 in0.0 mm
09:05 PM 51.1°F10.6°C 30.2°F-1.0°C 46% 4.1 mph S6.6 kmh S 7.8 mph12.6 kmh 29.62 in1003.0 mb 0.00 in0.0 mm 0.00 in0.0 mm 0.00 in0.0 mm
09:10 PM 51.1°F10.6°C 32.0°F0.0°C 47% 5.8 mph S9.3 kmh S 10.5 mph16.9 kmh 29.62 in1003.0 mb 0.00 in0.0 mm 0.00 in0.0 mm 0.00 in0.0 mm
09:15 PM 51.1°F10.6°C 32.0°F0.0°C 47% 7.0 mph S11.3 kmh S 10.5 mph16.9 kmh 29.62 in1003.0 mb 0.00 in0.0 mm 0.00 in0.0 mm 0.00 in0.0 mm
09:20 PM 51.4°F10.8°C 32.0°F0.0°C 48% 6.6 mph S10.6 kmh S 10.3 mph16.6 kmh 29.62 in1003.0 mb 0.00 in0.0 mm 0.00 in0.0 mm 0.00 in0.0 mm
09:25 PM 51.3°F10.7°C 33.8°F1.0°C 49% 6.6 mph SSW10.6 kmh SSW 12.5 mph20.1 kmh 29.62 in1003.0 mb 0.00 in0.0 mm 0.00 in0.0 mm 0.00 in0.0 mm
09:30 PM 51.3°F10.7°C 33.8°F1.0°C 49% 6.1 mph S9.8 kmh S 12.5 mph20.1 kmh 29.62 in1003.0 mb 0.00 in0.0 mm 0.00 in0.0 mm 0.00 in0.0 mm
09:35 PM 51.3°F10.7°C 33.8°F1.0°C 49% 5.6 mph S9.0 kmh S 12.5 mph20.1 kmh 29.62 in1003.0 mb 0.00 in0.0 mm 0.00 in0.0 mm 0.00 in0.0 mm
09:40 PM 51.3°F10.7°C 33.8°F1.0°C 50% 4.9 mph S7.9 kmh S 8.5 mph13.7 kmh 29.62 in1003.0 mb 0.00 in0.0 mm 0.00 in0.0 mm 0.00 in0.0 mm
09:45 PM 51.3°F10.7°C 33.8°F1.0°C 50% 6.1 mph SSW9.8 kmh SSW 9.8 mph15.8 kmh 29.62 in1003.0 mb 0.00 in0.0 mm 0.00 in0.0 mm 0.00 in0.0 mm
09:50 PM 51.3°F10.7°C 33.8°F1.0°C 51% 5.9 mph S9.5 kmh S 9.8 mph15.8 kmh 29.62 in1003.0 mb 0.00 in0.0 mm 0.00 in0.0 mm 0.00 in0.0 mm
09:55 PM 51.1°F10.6°C 33.8°F1.0°C 51% 5.7 mph SSW9.2 kmh SSW 10.1 mph16.3 kmh 29.62 in1003.0 mb 0.00 in0.0 mm 0.00 in0.0 mm 0.00 in0.0 mm
10:00 PM 51.1°F10.6°C 33.8°F1.0°C 52% 5.4 mph S8.7 kmh S 10.1 mph16.3 kmh 29.62 in1003.0 mb 0.00 in0.0 mm 0.00 in0.0 mm 0.00 in0.0 mm
10:05 PM 51.1°F10.6°C 33.8°F1.0°C 52% 5.7 mph S9.2 kmh S 10.1 mph16.3 kmh 29.62 in1003.0 mb 0.00 in0.0 mm 0.00 in0.0 mm 0.00 in0.0 mm
10:10 PM 51.1°F10.6°C 33.8°F1.0°C 52% 5.2 mph S8.4 kmh S 8.7 mph14.0 kmh 29.62 in1003.0 mb 0.00 in0.0 mm 0.00 in0.0 mm 0.00 in0.0 mm
10:15 PM 50.9°F10.5°C 33.8°F1.0°C 53% 4.2 mph S6.8 kmh S 7.4 mph11.9 kmh 29.62 in1003.0 mb 0.00 in0.0 mm 0.00 in0.0 mm 0.00 in0.0 mm
10:20 PM 50.9°F10.5°C 33.8°F1.0°C 53% 4.7 mph S7.6 kmh S 8.5 mph13.7 kmh 29.62 in1003.0 mb 0.00 in0.0 mm 0.00 in0.0 mm 0.00 in0.0 mm
10:25 PM 50.7°F10.4°C 35.6°F2.0°C 54% 5.6 mph S9.0 kmh S 9.6 mph15.4 kmh 29.62 in1003.0 mb 0.00 in0.0 mm 0.00 in0.0 mm 0.00 in0.0 mm
10:30 PM 50.7°F10.4°C 35.6°F2.0°C 54% 5.4 mph SSW8.7 kmh SSW 9.6 mph15.4 kmh 29.62 in1003.0 mb 0.00 in0.0 mm 0.00 in0.0 mm 0.00 in0.0 mm
10:35 PM 50.5°F10.3°C 33.8°F1.0°C 54% 5.1 mph S8.2 kmh S 8.1 mph13.0 kmh 29.62 in1003.0 mb 0.00 in0.0 mm 0.00 in0.0 mm 0.00 in0.0 mm
10:40 PM 50.5°F10.3°C 33.8°F1.0°C 54% 5.3 mph S8.5 kmh S 8.1 mph13.0 kmh 29.62 in1003.0 mb 0.00 in0.0 mm 0.00 in0.0 mm 0.00 in0.0 mm
10:45 PM 50.4°F10.2°C 33.8°F1.0°C 55% 5.6 mph S9.0 kmh S 8.5 mph13.7 kmh 29.59 in1002.0 mb 0.00 in0.0 mm 0.00 in0.0 mm 0.00 in0.0 mm
10:50 PM 50.2°F10.1°C 35.6°F2.0°C 56% 6.0 mph S9.7 kmh S 8.7 mph14.0 kmh 29.59 in1002.0 mb 0.00 in0.0 mm 0.00 in0.0 mm 0.00 in0.0 mm
10:55 PM 50.2°F10.1°C 35.6°F2.0°C 56% 6.1 mph S9.8 kmh S 8.7 mph14.0 kmh 29.59 in1002.0 mb 0.00 in0.0 mm 0.00 in0.0 mm 0.00 in0.0 mm
11:00 PM 50.0°F10.0°C 35.6°F2.0°C 57% 5.0 mph S8.0 kmh S 7.8 mph12.6 kmh 29.59 in1002.0 mb 0.00 in0.0 mm 0.00 in0.0 mm 0.00 in0.0 mm
11:05 PM 50.0°F10.0°C 35.6°F2.0°C 57% 4.4 mph S7.1 kmh S 6.0 mph9.7 kmh 29.59 in1002.0 mb 0.00 in0.0 mm 0.00 in0.0 mm 0.00 in0.0 mm
11:10 PM 49.8°F9.9°C 35.6°F2.0°C 58% 6.5 mph S10.5 kmh S 12.3 mph19.8 kmh 29.59 in1002.0 mb 0.00 in0.0 mm 0.00 in0.0 mm 0.00 in0.0 mm
11:15 PM 49.8°F9.9°C 35.6°F2.0°C 58% 6.7 mph S10.8 kmh S 12.3 mph19.8 kmh 29.59 in1002.0 mb 0.00 in0.0 mm 0.00 in0.0 mm 0.00 in0.0 mm
11:20 PM 49.8°F9.9°C 35.6°F2.0°C 58% 6.0 mph SSW9.7 kmh SSW 12.3 mph19.8 kmh 29.59 in1002.0 mb 0.00 in0.0 mm 0.00 in0.0 mm 0.00 in0.0 mm
11:25 PM 49.8°F9.9°C 35.6°F2.0°C 58% 7.8 mph S12.6 kmh S 14.5 mph23.3 kmh 29.59 in1002.0 mb 0.00 in0.0 mm 0.00 in0.0 mm 0.00 in0.0 mm
11:30 PM 49.8°F9.9°C 35.6°F2.0°C 58% 8.7 mph S14.0 kmh S 14.5 mph23.3 kmh 29.59 in1002.0 mb 0.00 in0.0 mm 0.00 in0.0 mm 0.00 in0.0 mm
11:35 PM 49.6°F9.8°C 35.6°F2.0°C 59% 8.5 mph S13.7 kmh S 14.5 mph23.3 kmh 29.59 in1002.0 mb 0.00 in0.0 mm 0.00 in0.0 mm 0.00 in0.0 mm
11:40 PM 49.6°F9.8°C 35.6°F2.0°C 59% 8.5 mph S13.7 kmh S 11.2 mph18.0 kmh 29.59 in1002.0 mb 0.00 in0.0 mm 0.00 in0.0 mm 0.00 in0.0 mm
11:45 PM 49.6°F9.8°C 35.6°F2.0°C 59% 7.4 mph S11.9 kmh S 11.2 mph18.0 kmh 29.59 in1002.0 mb 0.00 in0.0 mm 0.00 in0.0 mm 0.00 in0.0 mm
11:50 PM 49.6°F9.8°C 37.4°F3.0°C 60% 5.9 mph S9.5 kmh S 10.5 mph16.9 kmh 29.59 in1002.0 mb 0.00 in0.0 mm 0.00 in0.0 mm 0.00 in0.0 mm
11:55 PM 49.5°F9.7°C 37.4°F3.0°C 60% 5.9 mph S9.5 kmh S 10.3 mph16.6 kmh 29.59 in1002.0 mb 0.00 in0.0 mm 0.00 in0.0 mm 0.00 in0.0 mm